createdAt,value
2019-01-20T05:02:47.872Z,18.93
2019-01-20T05:05:22.802Z,20.40
2019-01-20T05:07:57.835Z,21.07
2019-01-20T05:10:32.813Z,20.30
2019-01-20T05:13:07.834Z,20.83
2019-01-20T06:00:44.422Z,19.53
2019-01-20T06:03:19.597Z,21.50
2019-01-20T06:05:54.819Z,21.80
2019-01-20T06:08:29.966Z,23.93
2019-01-20T06:11:05.199Z,22.03
2019-01-20T06:13:40.302Z,20.17
2019-01-20T07:00:48.182Z,22.23
2019-01-20T07:03:23.382Z,23.23
2019-01-20T07:05:58.551Z,23.60
2019-01-20T07:08:33.632Z,21.83
2019-01-20T07:11:08.758Z,24.20
2019-01-20T07:13:43.956Z,24.40
2019-01-20T08:02:03.711Z,21.53
2019-01-20T08:04:26.263Z,20.17
2019-01-20T08:07:01.470Z,20.17
2019-01-20T08:09:36.549Z,21.37
2019-01-20T08:12:11.746Z,19.07
2019-01-20T08:14:46.593Z,21.80
2019-01-20T09:00:15.139Z,21.03
2019-01-20T09:02:50.660Z,22.23
2019-01-20T09:05:25.829Z,20.43
2019-01-20T09:08:01.219Z,24.40
2019-01-20T09:10:25.551Z,24.27
2019-01-20T09:12:48.166Z,23.50
2019-01-20T10:02:32.012Z,22.53
2019-01-20T10:05:07.014Z,24.17
2019-01-20T10:07:41.909Z,23.60
2019-01-20T10:10:16.920Z,24.13
2019-01-20T10:12:51.904Z,24.43
2019-01-20T11:01:11.787Z,24.93
2019-01-20T11:03:46.938Z,24.90
2019-01-20T11:06:21.908Z,24.90
2019-01-20T11:08:56.875Z,24.90
2019-01-20T11:11:31.947Z,25.30
2019-01-20T11:14:09.545Z,24.80
2019-01-20T12:02:28.559Z,25.50
2019-01-20T12:05:03.839Z,25.93
2019-01-20T12:07:39.104Z,26.23
2019-01-20T12:10:14.316Z,24.70
2019-01-20T12:13:08.998Z,26.53
2019-01-20T13:02:15.589Z,27.30
2019-01-20T13:04:38.273Z,26.37
2019-01-20T13:07:00.811Z,25.93
2019-01-20T13:09:23.354Z,29.23
2019-01-20T13:11:46.147Z,26.40
2019-01-20T13:14:08.939Z,25.90
2019-01-20T14:00:56.707Z,25.37
2019-01-20T14:03:19.328Z,27.10
2019-01-20T14:05:42.037Z,26.03
2019-01-20T14:08:04.722Z,27.20
2019-01-20T14:10:27.719Z,27.93
2019-01-20T14:12:50.674Z,29.03
2019-01-20T15:01:57.943Z,32.53
2019-01-20T15:04:20.507Z,31.50
2019-01-20T15:06:42.990Z,32.43
2019-01-20T15:09:07.134Z,33.97
2019-01-20T15:11:30.710Z,33.70
2019-01-20T15:13:53.342Z,31.63
2019-01-20T16:01:21.239Z,33.60
2019-01-20T16:03:43.774Z,34.03
2019-01-20T16:06:06.339Z,32.77
2019-01-20T16:08:28.803Z,34.67
2019-01-20T16:10:51.256Z,34.73
2019-01-20T16:13:13.782Z,34.73
2019-01-20T16:57:35.862Z,32.50
2019-01-20T16:59:58.397Z,32.40
2019-01-20T17:02:20.834Z,33.27
2019-01-20T17:04:43.266Z,25.53
2019-01-20T17:07:05.705Z,32.60
2019-01-20T17:09:28.202Z,30.70
2019-01-20T17:11:50.642Z,28.63
2019-01-20T17:14:13.101Z,30.90
2019-01-20T18:02:32.523Z,33.00
2019-01-20T18:04:55.074Z,31.77
2019-01-20T18:07:17.506Z,26.90
2019-01-20T18:09:39.972Z,32.00
2019-01-20T18:12:02.502Z,31.27
2019-01-20T18:14:24.948Z,31.03
2019-01-20T19:01:11.832Z,29.60
2019-01-20T19:03:35.447Z,28.57
2019-01-20T19:05:57.996Z,29.67
2019-01-20T19:08:20.431Z,30.17
2019-01-20T19:10:42.898Z,29.83
2019-01-20T19:13:05.563Z,29.40
2019-01-20T20:01:11.291Z,28.63
2019-01-20T20:03:33.749Z,29.93
2019-01-20T20:05:57.408Z,25.77
2019-01-20T20:08:19.965Z,28.53
2019-01-20T20:10:42.531Z,27.53
2019-01-20T20:13:05.086Z,30.83
2019-01-20T21:01:16.903Z,31.50
2019-01-20T21:03:40.043Z,30.93
2019-01-20T21:06:02.483Z,29.03
2019-01-20T21:08:25.022Z,30.97
2019-01-20T21:10:47.614Z,31.00
2019-01-20T21:13:10.058Z,32.30
